Time;durP1;ratioP1;P1;durP2;ratioP2;P2;SDS_P1;SDS_P2;PMS_P1;PMS_P2;Temp;Humidity;BMP_temperature;BMP_pressure;BME280_temperature;BME280_humidity;BME280_pressure;Samples;Min_cycle;Max_cycle;Signal;HPM_P1;HPM_P2
2022/11/23 00:01:35;;;;;;;13.38;6.93;;;7.50;99.90;;;;;;4964474;28;20552;-86
2022/11/23 00:04:06;;;;;;;14.05;7.35;;;7.50;99.90;;;;;;4963026;28;20039;-87
2022/11/23 00:06:32;;;;;;;10.20;7.43;;;7.50;99.90;;;;;;4964715;28;20146;-87
2022/11/23 00:08:58;;;;;;;17.80;7.63;;;7.50;99.90;;;;;;4946927;28;20089;-85
2022/11/23 00:11:26;;;;;;;9.68;6.05;;;7.50;99.90;;;;;;4963081;28;20079;-86
2022/11/23 00:13:52;;;;;;;12.98;7.65;;;7.60;99.90;;;;;;4963937;28;20295;-85
2022/11/23 00:16:23;;;;;;;9.98;7.50;;;7.60;99.90;;;;;;4964995;28;20039;-81
2022/11/23 00:18:52;;;;;;;8.93;6.50;;;7.60;99.90;;;;;;4964243;28;20050;-85
2022/11/23 00:21:19;;;;;;;17.42;7.35;;;7.50;99.90;;;;;;4962648;28;20481;-86
2022/11/23 00:23:45;;;;;;;9.75;6.68;;;7.60;99.90;;;;;;4974925;28;20684;-87
2022/11/23 00:26:11;;;;;;;9.43;7.90;;;7.60;99.90;;;;;;4983096;28;20571;-84
2022/11/23 00:28:39;;;;;;;10.77;7.55;;;7.60;99.90;;;;;;4982601;28;20050;-82
2022/11/23 00:31:10;;;;;;;11.18;7.35;;;7.60;99.90;;;;;;4983299;28;20078;-80
2022/11/23 00:33:36;;;;;;;8.30;6.97;;;7.60;99.90;;;;;;4982623;28;20050;-85
2022/11/23 00:36:10;;;;;;;8.90;7.43;;;7.60;99.90;;;;;;4981121;28;20038;-75
2022/11/23 00:38:36;;;;;;;12.20;7.40;;;7.60;99.90;;;;;;4966723;28;20504;-86
2022/11/23 00:41:04;;;;;;;9.05;6.85;;;7.60;99.90;;;;;;4981325;28;20332;-85
2022/11/23 00:43:30;;;;;;;10.60;8.70;;;7.60;99.90;;;;;;4980142;28;20046;-86
2022/11/23 00:46:18;;;;;;;12.88;6.85;;;7.60;99.90;;;;;;4982423;28;20573;-77
2022/11/23 00:48:46;;;;;;;12.40;6.90;;;7.50;99.90;;;;;;4969176;28;20544;-86
2022/11/23 00:51:14;;;;;;;12.32;8.50;;;7.60;99.90;;;;;;4961637;28;20081;-86
2022/11/23 00:53:40;;;;;;;9.65;7.10;;;7.60;99.90;;;;;;4964076;28;20126;-84
2022/11/23 00:56:06;;;;;;;9.88;7.32;;;7.60;99.90;;;;;;4963874;28;20143;-87
2022/11/23 00:58:33;;;;;;;12.43;7.70;;;7.60;99.90;;;;;;4963177;28;20074;-86
2022/11/23 01:01:10;;;;;;;11.18;7.00;;;7.60;99.90;;;;;;4978755;28;20104;-86
2022/11/23 01:03:38;;;;;;;11.75;7.55;;;7.60;99.90;;;;;;4967849;28;20039;-79
2022/11/23 01:06:10;;;;;;;17.00;8.02;;;7.60;99.90;;;;;;4984315;28;20053;-77
2022/11/23 01:08:36;;;;;;;13.00;9.07;;;7.60;99.90;;;;;;4986040;28;20049;-79
2022/11/23 01:11:05;;;;;;;13.63;6.38;;;7.60;99.90;;;;;;4985444;28;20038;-79
2022/11/23 01:13:31;;;;;;;13.25;6.43;;;7.60;99.90;;;;;;4985469;28;20043;-79
2022/11/23 01:15:56;;;;;;;11.48;6.57;;;7.60;99.90;;;;;;4985358;28;20444;-80
2022/11/23 01:18:22;;;;;;;10.85;6.85;;;7.60;99.90;;;;;;4985814;28;20072;-77
2022/11/23 01:20:48;;;;;;;20.10;7.53;;;7.60;99.90;;;;;;4985120;28;20053;-85
2022/11/23 01:23:13;;;;;;;11.13;7.38;;;7.60;99.90;;;;;;4985575;28;20054;-85
2022/11/23 01:25:39;;;;;;;12.82;8.90;;;7.60;99.90;;;;;;4985949;28;20046;-82
2022/11/23 01:28:05;;;;;;;9.60;6.95;;;7.60;99.90;;;;;;4985277;28;20209;-85
2022/11/23 01:30:30;;;;;;;16.48;7.82;;;7.60;99.90;;;;;;4985213;28;20030;-82
2022/11/23 01:32:56;;;;;;;11.20;7.20;;;7.60;99.90;;;;;;4984912;28;20557;-79
2022/11/23 01:35:21;;;;;;;11.32;7.32;;;7.70;99.90;;;;;;4984536;28;20042;-79
2022/11/23 01:37:47;;;;;;;10.13;6.80;;;7.70;99.90;;;;;;4985860;28;20149;-85
2022/11/23 01:40:13;;;;;;;11.02;7.25;;;7.60;99.90;;;;;;4985121;28;20065;-83
2022/11/23 01:42:53;;;;;;;10.63;6.63;;;7.60;99.90;;;;;;4986156;28;20050;-86
2022/11/23 01:45:38;;;;;;;12.35;7.82;;;7.60;99.90;;;;;;4985157;28;20042;-77
2022/11/23 01:48:10;;;;;;;12.63;7.20;;;7.70;99.90;;;;;;4986085;28;20050;-80
2022/11/23 01:50:36;;;;;;;10.30;6.80;;;7.60;99.90;;;;;;4984977;28;20555;-86
2022/11/23 01:53:02;;;;;;;12.95;8.02;;;7.60;99.90;;;;;;4975812;28;20050;-86
2022/11/23 01:55:27;;;;;;;12.52;7.13;;;7.70;99.90;;;;;;4949547;28;20046;-81
2022/11/23 01:57:54;;;;;;;14.95;8.27;;;7.60;99.90;;;;;;4983155;28;20058;-79
2022/11/23 02:00:20;;;;;;;19.30;9.38;;;7.70;99.90;;;;;;4986383;28;20046;-81
2022/11/23 02:02:52;;;;;;;15.20;9.55;;;7.60;99.90;;;;;;4969239;28;20046;-81
2022/11/23 02:05:20;;;;;;;14.13;8.40;;;7.60;99.90;;;;;;4984049;28;20588;-80
2022/11/23 02:07:48;;;;;;;16.15;8.80;;;7.70;99.90;;;;;;4986619;28;20513;-79
2022/11/23 02:10:14;;;;;;;9.77;7.65;;;7.70;99.90;;;;;;4966626;28;20050;-81
2022/11/23 02:12:40;;;;;;;14.43;8.98;;;7.70;99.90;;;;;;4966513;28;20051;-81
2022/11/23 02:15:06;;;;;;;11.23;7.13;;;7.70;99.90;;;;;;4965975;28;20460;-80
2022/11/23 02:17:34;;;;;;;11.00;7.70;;;7.70;99.90;;;;;;4965006;28;20047;-85
2022/11/23 02:20:08;;;;;;;19.13;11.18;;;7.70;99.90;;;;;;4965439;28;20516;-84
2022/11/23 02:22:48;;;;;;;13.07;9.32;;;7.70;99.90;;;;;;4966331;28;20447;-80
2022/11/23 02:25:24;;;;;;;14.88;11.27;;;7.70;99.90;;;;;;4966834;28;20051;-81
2022/11/23 02:27:50;;;;;;;17.38;10.75;;;7.70;99.90;;;;;;4984216;28;20050;-85
2022/11/23 02:30:15;;;;;;;18.77;10.52;;;7.70;99.90;;;;;;4986006;28;20056;-80
2022/11/23 02:32:42;;;;;;;18.65;10.50;;;7.70;99.90;;;;;;4985463;28;20585;-82
2022/11/23 02:35:10;;;;;;;19.10;10.23;;;7.70;99.90;;;;;;4983504;28;20046;-82
2022/11/23 02:37:36;;;;;;;14.13;9.55;;;7.70;99.90;;;;;;4984341;28;20523;-81
2022/11/23 02:40:07;;;;;;;14.63;9.70;;;7.70;99.90;;;;;;4967947;28;20401;-79
2022/11/23 02:42:32;;;;;;;16.15;8.27;;;7.70;99.90;;;;;;4984041;28;20117;-81
2022/11/23 02:45:04;;;;;;;21.40;11.20;;;7.70;99.90;;;;;;4980269;28;20142;-79
2022/11/23 02:47:29;;;;;;;15.57;9.57;;;7.70;99.90;;;;;;4966025;28;20042;-80
2022/11/23 02:49:55;;;;;;;13.13;10.93;;;7.60;99.90;;;;;;4964923;28;20053;-80
2022/11/23 02:52:21;;;;;;;17.90;11.77;;;7.60;99.90;;;;;;4973486;28;20132;-81
2022/11/23 02:54:46;;;;;;;18.63;11.65;;;7.60;99.90;;;;;;4984257;28;20072;-79
2022/11/23 02:57:13;;;;;;;19.95;11.00;;;7.60;99.90;;;;;;4983361;28;20100;-76
2022/11/23 02:59:38;;;;;;;16.08;9.60;;;7.60;99.90;;;;;;4983626;28;20057;-76
2022/11/23 03:02:04;;;;;;;19.63;10.93;;;7.60;99.90;;;;;;4983515;28;20050;-85
2022/11/23 03:04:30;;;;;;;27.05;11.18;;;7.60;99.90;;;;;;4983442;28;20034;-80
2022/11/23 03:06:56;;;;;;;15.88;11.57;;;7.70;99.90;;;;;;4983476;28;20066;-81
2022/11/23 03:09:24;;;;;;;25.92;13.13;;;7.70;99.90;;;;;;4983869;28;20049;-82
2022/11/23 03:11:51;;;;;;;18.50;12.43;;;7.70;99.90;;;;;;4966535;28;20049;-80
2022/11/23 03:14:16;;;;;;;20.80;11.43;;;7.70;99.90;;;;;;4983881;28;20240;-79
2022/11/23 03:16:42;;;;;;;18.75;11.98;;;7.70;99.90;;;;;;4970202;28;20047;-82
2022/11/23 03:19:07;;;;;;;16.58;11.73;;;7.70;99.90;;;;;;4963903;28;20046;-86
2022/11/23 03:21:33;;;;;;;17.73;11.68;;;7.70;99.90;;;;;;4984504;28;20042;-84
2022/11/23 03:23:58;;;;;;;22.98;14.20;;;7.70;99.90;;;;;;4966751;28;20053;-85
2022/11/23 03:26:24;;;;;;;20.23;12.85;;;7.70;99.90;;;;;;4999255;28;20049;-82
2022/11/23 03:28:50;;;;;;;21.55;15.02;;;7.70;99.90;;;;;;4984310;28;20033;-77
2022/11/23 03:31:15;;;;;;;28.10;12.85;;;7.70;99.90;;;;;;4982463;28;20185;-79
2022/11/23 03:33:41;;;;;;;26.38;14.77;;;7.70;99.90;;;;;;4963136;28;20494;-85
2022/11/23 03:36:07;;;;;;;25.95;14.43;;;7.70;99.90;;;;;;4964627;28;20035;-86
2022/11/23 03:38:32;;;;;;;24.45;15.30;;;7.70;99.90;;;;;;4965468;28;20509;-83
2022/11/23 03:40:58;;;;;;;23.88;12.55;;;7.70;99.90;;;;;;4963609;28;20122;-86
2022/11/23 03:43:24;;;;;;;16.55;12.93;;;7.70;99.90;;;;;;4962804;28;20414;-84
2022/11/23 03:45:49;;;;;;;21.63;11.55;;;7.70;99.90;;;;;;4964932;28;20516;-79
2022/11/23 03:48:16;;;;;;;28.13;14.80;;;7.70;99.90;;;;;;4965544;28;20050;-79
2022/11/23 03:50:42;;;;;;;21.08;13.40;;;7.70;99.90;;;;;;4962824;28;20050;-82
2022/11/23 03:53:08;;;;;;;19.95;12.98;;;7.70;99.90;;;;;;4977502;28;20050;-84
2022/11/23 03:55:34;;;;;;;28.33;12.55;;;7.70;99.90;;;;;;4983940;28;20188;-85
2022/11/23 03:57:59;;;;;;;21.38;14.25;;;7.70;99.90;;;;;;4981610;28;20441;-83
2022/11/23 04:00:29;;;;;;;15.82;11.60;;;7.70;99.90;;;;;;4973148;28;20042;-85
2022/11/23 04:02:55;;;;;;;23.70;13.55;;;7.70;99.90;;;;;;4982446;28;20086;-84
2022/11/23 04:05:21;;;;;;;26.33;15.30;;;7.70;99.90;;;;;;4970103;28;20054;-86
2022/11/23 04:07:48;;;;;;;23.33;15.00;;;7.60;99.90;;;;;;4964908;28;20058;-83
2022/11/23 04:10:18;;;;;;;21.27;11.88;;;7.70;99.90;;;;;;4963817;28;20059;-81
2022/11/23 04:12:44;;;;;;;22.15;14.88;;;7.60;99.90;;;;;;4947514;28;20046;-85
2022/11/23 04:15:10;;;;;;;25.27;13.50;;;7.60;99.90;;;;;;4964079;28;20035;-80
2022/11/23 04:17:36;;;;;;;22.58;13.05;;;7.60;99.90;;;;;;4978821;28;20046;-79
2022/11/23 04:20:03;;;;;;;18.85;12.13;;;7.60;99.90;;;;;;4981544;28;20477;-81
2022/11/23 04:22:28;;;;;;;19.65;12.15;;;7.60;99.90;;;;;;4980590;28;20053;-79
2022/11/23 04:24:54;;;;;;;17.83;13.70;;;7.60;99.90;;;;;;4982150;28;20042;-84
2022/11/23 04:27:19;;;;;;;19.83;13.18;;;7.60;99.90;;;;;;4970433;28;20049;-85
2022/11/23 04:29:45;;;;;;;19.02;11.70;;;7.60;99.90;;;;;;4984348;28;20093;-86
2022/11/23 04:32:10;;;;;;;24.65;14.02;;;7.60;99.90;;;;;;4980092;28;20046;-81
2022/11/23 04:34:36;;;;;;;34.95;12.85;;;7.60;99.90;;;;;;4961927;28;20437;-83
2022/11/23 04:37:02;;;;;;;18.67;12.10;;;7.60;99.90;;;;;;4973192;28;20477;-79
2022/11/23 04:39:27;;;;;;;27.35;13.55;;;7.60;99.90;;;;;;4986859;28;20039;-77
2022/11/23 04:41:53;;;;;;;23.88;14.05;;;7.60;99.90;;;;;;4985572;28;20054;-86
2022/11/23 04:44:20;;;;;;;25.52;14.82;;;7.60;99.90;;;;;;4969963;28;20104;-78
2022/11/23 04:46:46;;;;;;;23.52;13.43;;;7.60;99.90;;;;;;4987579;28;20125;-86
2022/11/23 04:49:11;;;;;;;24.17;14.23;;;7.60;99.90;;;;;;4985177;28;20054;-86
2022/11/23 04:51:37;;;;;;;40.83;14.63;;;7.60;99.90;;;;;;4986939;28;20046;-84
2022/11/23 04:54:03;;;;;;;23.88;13.82;;;7.60;99.90;;;;;;4985866;28;20046;-82
2022/11/23 04:56:28;;;;;;;18.45;10.77;;;7.60;99.90;;;;;;4986513;28;20464;-76
2022/11/23 04:58:54;;;;;;;15.75;10.55;;;7.60;99.90;;;;;;4987210;28;20112;-82
2022/11/23 05:01:19;;;;;;;19.42;12.95;;;7.60;99.90;;;;;;4969183;28;20047;-86
2022/11/23 05:03:45;;;;;;;27.77;13.82;;;7.60;99.90;;;;;;4986816;28;20073;-86
2022/11/23 05:06:10;;;;;;;26.50;12.13;;;7.60;99.90;;;;;;4986502;28;20112;-84
2022/11/23 05:08:36;;;;;;;21.60;12.23;;;7.60;99.90;;;;;;4987232;28;20489;-85
2022/11/23 05:11:01;;;;;;;19.65;13.52;;;7.60;99.90;;;;;;4985541;28;20417;-81
2022/11/23 05:13:27;;;;;;;17.75;13.13;;;7.60;99.90;;;;;;4986830;28;20053;-81
2022/11/23 05:15:53;;;;;;;24.33;14.32;;;7.60;99.90;;;;;;4985803;28;20046;-82
2022/11/23 05:18:18;;;;;;;23.52;14.98;;;7.60;99.90;;;;;;4984835;28;20046;-77
2022/11/23 05:20:45;;;;;;;24.20;13.85;;;7.60;99.90;;;;;;4985789;28;20039;-82
2022/11/23 05:23:10;;;;;;;22.02;14.93;;;7.60;99.90;;;;;;4985296;28;20172;-86
2022/11/23 05:25:36;;;;;;;26.30;16.63;;;7.60;99.90;;;;;;4981108;28;20122;-77
2022/11/23 05:28:02;;;;;;;24.45;16.15;;;7.60;99.90;;;;;;4965978;28;20486;-80
2022/11/23 05:30:27;;;;;;;24.50;14.77;;;7.60;99.90;;;;;;4950012;28;20047;-79
2022/11/23 05:32:53;;;;;;;26.35;16.73;;;7.50;99.90;;;;;;4949735;28;20051;-80
2022/11/23 05:35:18;;;;;;;24.42;16.17;;;7.50;99.90;;;;;;4965155;28;20043;-78
2022/11/23 05:37:44;;;;;;;25.42;15.07;;;7.50;99.90;;;;;;4971354;28;20385;-86
2022/11/23 05:40:11;;;;;;;20.45;14.95;;;7.50;99.90;;;;;;4986103;28;20038;-77
2022/11/23 05:42:36;;;;;;;23.60;15.02;;;7.50;99.90;;;;;;4986502;28;20038;-85
2022/11/23 05:45:02;;;;;;;27.30;14.35;;;7.50;99.90;;;;;;4986014;28;20046;-85
2022/11/23 05:47:28;;;;;;;24.88;17.05;;;7.50;99.90;;;;;;4986468;28;20042;-82
2022/11/23 05:49:53;;;;;;;27.52;14.63;;;7.50;99.90;;;;;;4983231;28;20039;-80
2022/11/23 05:52:19;;;;;;;30.05;17.92;;;7.50;99.90;;;;;;4984804;28;20042;-76
2022/11/23 05:54:44;;;;;;;34.17;17.85;;;7.50;99.90;;;;;;4986638;28;20050;-85
2022/11/23 05:57:14;;;;;;;25.40;16.13;;;7.50;99.90;;;;;;4968699;28;20054;-85
2022/11/23 05:59:40;;;;;;;37.42;18.85;;;7.50;99.90;;;;;;4984326;28;20043;-76
2022/11/23 06:02:05;;;;;;;29.02;16.65;;;7.50;99.90;;;;;;4968227;28;20525;-86
2022/11/23 06:04:31;;;;;;;35.92;16.20;;;7.50;99.90;;;;;;4963707;28;20050;-81
2022/11/23 06:06:59;;;;;;;30.95;18.45;;;7.60;99.90;;;;;;4951098;28;20051;-88
2022/11/23 06:09:28;;;;;;;26.48;16.30;;;7.60;99.90;;;;;;4964854;28;20541;-83
2022/11/23 06:11:54;;;;;;;34.53;18.40;;;7.60;99.90;;;;;;4963058;28;20727;-81
2022/11/23 06:14:20;;;;;;;47.65;18.20;;;7.60;99.90;;;;;;4984951;28;20038;-84
2022/11/23 06:16:46;;;;;;;22.23;17.42;;;7.60;99.90;;;;;;4983728;28;20078;-82
2022/11/23 06:19:11;;;;;;;27.55;16.85;;;7.60;99.90;;;;;;4981562;28;20100;-82
2022/11/23 06:21:37;;;;;;;39.47;19.90;;;7.50;99.90;;;;;;4977749;28;20035;-80
2022/11/23 06:24:03;;;;;;;31.33;17.98;;;7.60;99.90;;;;;;4985479;28;20747;-83
2022/11/23 06:26:29;;;;;;;25.50;16.00;;;7.60;99.90;;;;;;4975657;28;20117;-83
2022/11/23 06:28:54;;;;;;;32.05;18.60;;;7.60;99.90;;;;;;4975640;28;20504;-82
2022/11/23 06:31:20;;;;;;;24.67;15.75;;;7.60;99.90;;;;;;4965853;28;20115;-81
2022/11/23 06:33:45;;;;;;;38.92;17.83;;;7.60;99.90;;;;;;4978476;28;20520;-78
2022/11/23 06:36:11;;;;;;;25.10;15.27;;;7.60;99.90;;;;;;4981491;28;20048;-79
2022/11/23 06:38:37;;;;;;;24.52;14.82;;;7.60;99.90;;;;;;4965848;28;20488;-77
2022/11/23 06:41:03;;;;;;;28.05;14.80;;;7.60;99.90;;;;;;4984411;28;20077;-87
2022/11/23 06:43:29;;;;;;;30.02;14.20;;;7.60;99.90;;;;;;4981442;28;20121;-79
2022/11/23 06:45:55;;;;;;;29.70;14.82;;;7.60;99.90;;;;;;4982942;28;20054;-87
2022/11/23 06:48:22;;;;;;;22.02;11.25;;;7.60;99.90;;;;;;4983012;28;20088;-87
2022/11/23 06:50:47;;;;;;;23.25;14.75;;;7.60;99.90;;;;;;4982871;28;20061;-90
2022/11/23 06:53:13;;;;;;;26.10;14.82;;;7.60;99.90;;;;;;4980171;28;20309;-80
2022/11/23 06:55:39;;;;;;;19.77;12.38;;;7.60;99.90;;;;;;4979839;28;20045;-81
2022/11/23 06:58:05;;;;;;;28.10;13.10;;;7.60;99.90;;;;;;4975394;28;20093;-82
2022/11/23 07:00:33;;;;;;;17.33;11.05;;;7.60;99.90;;;;;;4983772;28;20142;-86
2022/11/23 07:02:59;;;;;;;23.63;12.52;;;7.60;99.90;;;;;;4966336;28;20128;-85
2022/11/23 07:05:26;;;;;;;15.77;10.60;;;7.60;99.90;;;;;;4965644;28;20097;-84
2022/11/23 07:07:52;;;;;;;32.95;12.60;;;7.60;99.90;;;;;;4964854;28;20082;-84
2022/11/23 07:10:18;;;;;;;20.40;12.45;;;7.60;99.90;;;;;;4983655;28;20038;-83
2022/11/23 07:12:44;;;;;;;20.40;12.13;;;7.60;99.90;;;;;;4984300;28;20696;-82
2022/11/23 07:15:10;;;;;;;20.80;11.60;;;7.60;99.90;;;;;;4984913;28;20121;-82
2022/11/23 07:17:40;;;;;;;19.63;11.13;;;7.60;99.90;;;;;;4978320;28;20117;-79
2022/11/23 07:20:11;;;;;;;20.63;10.48;;;7.60;99.90;;;;;;4982579;28;20121;-81
2022/11/23 07:22:37;;;;;;;19.15;10.80;;;7.60;99.90;;;;;;4980734;28;20042;-80
2022/11/23 07:25:04;;;;;;;15.45;10.80;;;7.60;99.90;;;;;;4981476;28;20519;-78
2022/11/23 07:27:29;;;;;;;17.85;9.13;;;7.60;99.90;;;;;;4971267;28;20563;-77
2022/11/23 07:29:55;;;;;;;18.00;10.20;;;7.70;99.90;;;;;;4983699;28;20331;-76
2022/11/23 07:32:20;;;;;;;18.38;8.18;;;7.70;99.90;;;;;;4982655;28;20056;-76
2022/11/23 07:34:46;;;;;;;19.33;9.85;;;7.70;99.90;;;;;;4983015;28;20438;-77
2022/11/23 07:37:11;;;;;;;13.07;8.52;;;7.60;99.90;;;;;;4982568;28;20126;-78
2022/11/23 07:39:37;;;;;;;12.70;8.50;;;7.70;99.90;;;;;;4982037;28;20167;-79
2022/11/23 07:42:02;;;;;;;14.93;9.95;;;7.70;99.90;;;;;;4983032;28;20043;-78
2022/11/23 07:44:28;;;;;;;15.48;9.50;;;7.60;99.90;;;;;;4981565;28;20070;-79
2022/11/23 07:46:54;;;;;;;13.43;8.80;;;7.70;99.90;;;;;;4981612;28;20050;-78
2022/11/23 07:49:19;;;;;;;16.27;10.23;;;7.70;99.90;;;;;;4980850;28;20137;-80
2022/11/23 07:51:45;;;;;;;12.85;9.23;;;7.70;99.90;;;;;;4982681;28;20605;-79
2022/11/23 07:54:11;;;;;;;15.95;8.00;;;7.70;99.90;;;;;;4982806;28;20412;-78
2022/11/23 07:56:36;;;;;;;11.85;8.45;;;7.70;99.90;;;;;;4981498;28;20038;-79
2022/11/23 07:59:02;;;;;;;19.50;8.70;;;7.70;99.90;;;;;;4981157;28;20050;-79
2022/11/23 08:01:27;;;;;;;14.00;8.77;;;7.70;99.90;;;;;;4982134;28;20129;-77
2022/11/23 08:03:53;;;;;;;19.23;7.75;;;7.70;99.90;;;;;;4980295;28;20038;-79
2022/11/23 08:06:19;;;;;;;12.40;8.32;;;7.70;99.90;;;;;;4981239;28;20050;-79
2022/11/23 08:08:44;;;;;;;13.70;6.80;;;7.70;99.90;;;;;;4981724;28;20470;-77
2022/11/23 08:11:13;;;;;;;15.38;7.18;;;7.70;99.90;;;;;;4980819;28;20525;-79
2022/11/23 08:13:39;;;;;;;14.00;7.28;;;7.70;99.90;;;;;;4980750;28;20053;-78
2022/11/23 08:16:05;;;;;;;10.68;7.75;;;7.70;99.90;;;;;;4964898;28;20108;-78
2022/11/23 08:18:31;;;;;;;10.77;7.82;;;7.70;99.90;;;;;;4981693;28;20042;-78
2022/11/23 08:20:59;;;;;;;16.95;8.30;;;7.70;99.90;;;;;;4981959;28;20038;-78
2022/11/23 08:23:25;;;;;;;14.40;7.63;;;7.70;99.90;;;;;;4981037;28;20412;-77
2022/11/23 08:25:51;;;;;;;12.60;6.57;;;7.70;99.90;;;;;;4981934;28;20042;-78
2022/11/23 08:28:17;;;;;;;11.68;6.38;;;7.70;99.90;;;;;;4982935;28;20045;-76
2022/11/23 08:30:43;;;;;;;10.52;7.30;;;7.80;99.90;;;;;;4982252;28;20331;-78
2022/11/23 08:33:08;;;;;;;14.43;8.43;;;7.80;99.90;;;;;;4963694;28;20587;-78
2022/11/23 08:35:39;;;;;;;11.85;7.40;;;7.80;99.90;;;;;;4981014;28;20085;-78
2022/11/23 08:38:06;;;;;;;13.80;7.45;;;7.80;99.90;;;;;;4980929;28;20046;-78
2022/11/23 08:40:32;;;;;;;12.57;7.10;;;7.90;99.90;;;;;;4981011;28;20092;-77
2022/11/23 08:42:58;;;;;;;15.13;8.00;;;7.90;99.90;;;;;;4980819;28;20042;-78
2022/11/23 08:45:23;;;;;;;10.07;7.13;;;7.90;99.90;;;;;;4973024;28;20044;-77
2022/11/23 08:47:49;;;;;;;12.52;8.30;;;8.00;99.90;;;;;;4978729;28;20077;-77
2022/11/23 08:50:15;;;;;;;12.50;7.45;;;8.00;99.90;;;;;;4965443;28;20579;-78
2022/11/23 08:52:41;;;;;;;18.38;8.93;;;8.00;99.90;;;;;;4945625;28;20198;-77
2022/11/23 08:55:07;;;;;;;9.85;5.85;;;8.10;99.90;;;;;;4963257;28;20039;-78
2022/11/23 08:57:33;;;;;;;13.93;9.35;;;8.10;99.90;;;;;;4946234;28;20047;-78
2022/11/23 08:59:58;;;;;;;20.48;7.70;;;8.10;99.90;;;;;;4982136;28;20046;-77
2022/11/23 09:02:24;;;;;;;20.58;6.95;;;8.10;99.90;;;;;;4978899;28;20258;-78
2022/11/23 09:04:49;;;;;;;14.95;6.60;;;8.10;99.90;;;;;;4976829;28;20078;-78
2022/11/23 09:07:15;;;;;;;14.50;6.47;;;8.10;99.90;;;;;;4963003;28;20422;-78
2022/11/23 09:09:41;;;;;;;14.50;9.43;;;8.10;99.90;;;;;;4962896;28;20328;-78
2022/11/23 09:12:06;;;;;;;14.10;6.97;;;8.10;99.90;;;;;;4975735;28;20050;-77
2022/11/23 09:14:32;;;;;;;14.60;9.00;;;8.20;99.90;;;;;;4980660;28;20604;-78
2022/11/23 09:17:00;;;;;;;11.48;7.72;;;8.20;99.90;;;;;;4956128;28;20030;-78
2022/11/23 09:19:26;;;;;;;20.45;8.80;;;8.20;99.90;;;;;;4974616;28;20057;-78
2022/11/23 09:21:52;;;;;;;14.02;5.97;;;8.20;99.90;;;;;;4980194;28;20038;-77
2022/11/23 09:24:18;;;;;;;15.38;8.05;;;8.20;99.90;;;;;;4971513;28;20054;-78
2022/11/23 09:26:44;;;;;;;13.23;7.35;;;8.20;99.90;;;;;;4982951;28;20050;-79
2022/11/23 09:29:10;;;;;;;7.35;5.78;;;8.20;99.90;;;;;;4974783;28;20043;-78
2022/11/23 09:31:35;;;;;;;13.60;6.75;;;8.20;99.90;;;;;;4981426;28;20038;-76
2022/11/23 09:34:01;;;;;;;12.52;5.15;;;8.30;99.90;;;;;;4972131;28;20379;-77
2022/11/23 09:36:27;;;;;;;6.18;5.45;;;8.30;99.90;;;;;;4962435;28;20046;-77
2022/11/23 09:38:54;;;;;;;9.60;5.97;;;8.30;99.90;;;;;;4956965;28;20035;-77
2022/11/23 09:41:43;;;;;;;10.65;6.80;;;8.30;99.90;;;;;;4978776;28;20417;-77
2022/11/23 09:44:22;;;;;;;8.02;6.00;;;8.30;99.90;;;;;;4984840;28;20046;-77
2022/11/23 09:46:53;;;;;;;14.00;7.47;;;8.30;99.90;;;;;;4974691;28;20539;-78
2022/11/23 09:49:21;;;;;;;10.43;6.18;;;8.30;99.90;;;;;;4966123;28;20043;-76
2022/11/23 09:51:49;;;;;;;10.75;5.50;;;8.30;99.90;;;;;;4975677;28;20071;-78
2022/11/23 09:54:35;;;;;;;9.00;5.00;;;8.30;99.90;;;;;;4968248;28;20039;-77
2022/11/23 09:57:03;;;;;;;11.90;5.78;;;8.40;99.90;;;;;;4965502;28;20049;-82
2022/11/23 09:59:29;;;;;;;7.35;5.90;;;8.40;99.90;;;;;;4963050;28;20046;-81
2022/11/23 10:01:55;;;;;;;10.13;5.72;;;8.40;99.90;;;;;;4962705;28;20055;-81
2022/11/23 10:04:22;;;;;;;11.25;6.38;;;8.40;99.90;;;;;;4962659;28;20093;-82
2022/11/23 10:06:56;;;;;;;7.40;4.88;;;8.40;99.90;;;;;;4964931;28;20061;-80
2022/11/23 10:09:47;;;;;;;7.25;4.63;;;8.50;99.90;;;;;;4965422;28;20101;-81
2022/11/23 10:12:33;;;;;;;6.95;4.45;;;8.40;99.90;;;;;;4963690;28;20505;-80
2022/11/23 10:15:14;;;;;;;8.85;4.85;;;8.50;99.90;;;;;;4964576;28;20074;-82
2022/11/23 10:18:01;;;;;;;11.15;6.50;;;8.50;99.90;;;;;;4964056;28;20117;-81
2022/11/23 10:20:43;;;;;;;5.38;3.92;;;8.60;99.90;;;;;;4963996;28;20064;-80
2022/11/23 10:23:18;;;;;;;20.30;5.88;;;8.60;99.90;;;;;;4963062;28;20055;-82
2022/11/23 10:25:48;;;;;;;6.72;4.13;;;8.60;99.90;;;;;;4970394;28;20053;-81
2022/11/23 10:28:18;;;;;;;10.88;4.43;;;8.60;99.90;;;;;;4983140;28;20038;-77
2022/11/23 10:31:06;;;;;;;7.45;4.00;;;8.70;99.90;;;;;;4983562;28;20046;-78
2022/11/23 10:34:11;;;;;;;4.68;3.33;;;8.70;99.90;;;;;;4982457;28;20046;-81
2022/11/23 10:36:38;;;;;;;10.15;4.72;;;8.70;99.90;;;;;;4967470;28;20062;-80
2022/11/23 10:39:24;;;;;;;5.72;4.20;;;8.70;99.90;;;;;;4984064;28;20452;-79
2022/11/23 10:41:51;;;;;;;10.52;5.05;;;8.70;99.90;;;;;;4982354;28;20532;-79
2022/11/23 10:44:23;;;;;;;6.05;3.50;;;8.80;99.90;;;;;;4984056;28;20134;-81
2022/11/23 10:46:49;;;;;;;5.90;3.10;;;8.80;99.90;;;;;;4984196;28;20081;-81
2022/11/23 10:49:22;;;;;;;9.98;3.80;;;8.80;99.90;;;;;;4981986;28;20158;-81
2022/11/23 10:52:04;;;;;;;10.05;4.50;;;8.90;99.90;;;;;;4966752;28;20042;-81
2022/11/23 10:54:46;;;;;;;9.35;3.03;;;8.90;99.90;;;;;;4983748;28;20081;-82
2022/11/23 10:57:21;;;;;;;6.70;4.00;;;8.80;99.90;;;;;;4966323;28;20134;-81
2022/11/23 10:59:58;;;;;;;10.27;4.43;;;8.80;99.90;;;;;;4982460;28;20148;-79
2022/11/23 11:02:24;;;;;;;6.22;3.38;;;8.90;99.90;;;;;;4965128;28;20172;-81
2022/11/23 11:05:10;;;;;;;13.65;3.80;;;8.90;99.90;;;;;;4982036;28;20056;-79
2022/11/23 11:07:36;;;;;;;17.50;4.18;;;8.90;99.90;;;;;;4983146;28;20574;-79
2022/11/23 11:10:03;;;;;;;9.05;3.13;;;8.90;99.90;;;;;;4982289;28;20042;-81
2022/11/23 11:12:32;;;;;;;7.05;3.17;;;8.90;99.90;;;;;;4983085;28;20117;-81
2022/11/23 11:15:14;;;;;;;9.73;2.95;;;8.90;99.90;;;;;;4983480;28;20038;-82
2022/11/23 11:17:41;;;;;;;4.32;2.53;;;8.90;99.90;;;;;;4981271;28;20061;-81
2022/11/23 11:20:30;;;;;;;9.55;3.47;;;8.90;99.90;;;;;;4981779;28;20093;-81
2022/11/23 11:23:17;;;;;;;7.65;3.22;;;9.00;99.90;;;;;;4982791;28;20246;-81
2022/11/23 11:25:43;;;;;;;7.90;3.55;;;8.90;99.90;;;;;;4976406;28;20061;-82
2022/11/23 11:28:42;;;;;;;5.28;2.30;;;8.90;99.90;;;;;;4962131;28;20051;-82
2022/11/23 11:31:16;;;;;;;6.53;3.53;;;8.90;99.90;;;;;;4932162;28;20047;-78
2022/11/23 11:33:50;;;;;;;16.52;2.75;;;8.90;99.90;;;;;;4962927;28;20066;-81
2022/11/23 11:36:17;;;;;;;7.55;3.35;;;8.90;99.90;;;;;;4964263;28;20149;-80
2022/11/23 11:38:47;;;;;;;5.15;2.90;;;8.90;99.90;;;;;;4946553;28;20149;-80
2022/11/23 11:41:14;;;;;;;6.70;2.65;;;8.90;99.90;;;;;;4963584;28;20049;-80
2022/11/23 11:43:49;;;;;;;4.95;2.67;;;8.80;99.90;;;;;;4962196;28;20159;-80
2022/11/23 11:46:22;;;;;;;8.35;2.33;;;8.80;99.90;;;;;;4962430;28;20074;-78
2022/11/23 11:48:54;;;;;;;6.53;2.75;;;8.90;99.90;;;;;;4944695;28;20038;-82
2022/11/23 11:51:19;;;;;;;;;;;8.90;99.90;;;;;;4962642;28;20460;-79
2022/11/23 11:54:14;;;;;;;7.50;3.42;;;9.00;99.90;;;;;;4962670;28;20042;-79
2022/11/23 11:56:50;;;;;;;4.28;2.05;;;9.10;99.90;;;;;;4949566;28;20109;-80
2022/11/23 11:59:28;;;;;;;5.05;2.42;;;9.10;99.90;;;;;;4962828;28;20109;-84
2022/11/23 12:02:11;;;;;;;4.03;2.38;;;9.10;99.90;;;;;;4981892;28;20309;-81
2022/11/23 12:04:47;;;;;;;6.43;2.75;;;9.10;99.90;;;;;;4980758;28;20104;-78
2022/11/23 12:07:36;;;;;;;3.92;2.17;;;9.00;99.90;;;;;;4994918;28;20043;-78
2022/11/23 12:10:14;;;;;;;3.38;2.78;;;9.00;99.90;;;;;;4963680;28;20055;-81
2022/11/23 12:12:39;;;;;;;7.68;2.38;;;9.00;99.90;;;;;;4972649;28;20434;-79
2022/11/23 12:15:15;;;;;;;4.90;2.83;;;9.00;99.90;;;;;;4971446;28;20125;-83
2022/11/23 12:17:43;;;;;;;3.40;1.40;;;9.10;99.90;;;;;;4979720;28;20382;-80
2022/11/23 12:20:09;;;;;;;4.75;2.33;;;9.10;99.90;;;;;;4980425;28;20085;-80
2022/11/23 12:22:52;;;;;;;5.18;3.33;;;9.10;99.90;;;;;;4980326;28;20046;-80
2022/11/23 12:25:32;;;;;;;8.57;2.03;;;9.10;99.90;;;;;;4979709;28;20250;-79
2022/11/23 12:28:37;;;;;;;6.32;5.15;;;9.10;99.90;;;;;;4969535;28;20060;-82
2022/11/23 12:31:21;;;;;;;3.40;2.22;;;9.10;99.90;;;;;;4967516;28;20086;-79
2022/11/23 12:34:05;;;;;;;4.10;2.35;;;9.10;99.90;;;;;;4979284;28;20047;-78
2022/11/23 12:36:46;;;;;;;5.38;2.72;;;9.10;99.90;;;;;;4969522;28;20050;-77
2022/11/23 12:39:53;;;;;;;8.07;3.55;;;9.10;99.90;;;;;;4971210;28;20046;-78
2022/11/23 12:42:31;;;;;;;10.52;2.67;;;9.10;99.90;;;;;;4974599;28;20035;-81
2022/11/23 12:45:13;;;;;;;6.35;2.65;;;9.10;99.90;;;;;;4963282;28;20255;-79
2022/11/23 12:48:01;;;;;;;6.78;2.63;;;9.10;99.90;;;;;;4961006;28;20512;-78
2022/11/23 12:50:39;;;;;;;4.93;1.95;;;9.00;99.90;;;;;;4966257;28;20047;-79
2022/11/23 12:53:30;;;;;;;6.78;2.13;;;9.10;99.90;;;;;;4966687;28;20042;-78
2022/11/23 12:56:02;;;;;;;6.32;1.88;;;9.00;99.90;;;;;;4981612;28;20559;-79